createdAt,value
2019-03-31T00:04:26.481Z,28.63
2019-03-31T00:09:30.102Z,27.20
2019-03-31T00:14:34.027Z,31.40
2019-03-31T00:19:37.290Z,29.13
2019-03-31T00:24:40.289Z,28.30
2019-03-31T00:29:43.342Z,28.70
2019-03-31T00:34:46.387Z,29.17
2019-03-31T00:39:49.477Z,33.80
2019-03-31T00:44:52.459Z,30.27
2019-03-31T00:49:55.441Z,29.47
2019-03-31T00:54:58.437Z,28.87
2019-03-31T01:00:02.150Z,29.93
2019-03-31T01:05:08.758Z,32.90
2019-03-31T01:10:14.286Z,30.33
2019-03-31T01:15:22.195Z,29.60
2019-03-31T01:20:26.122Z,27.40
2019-03-31T01:25:29.212Z,27.27
2019-03-31T01:30:33.567Z,29.67
2019-03-31T01:35:36.999Z,26.30
2019-03-31T01:40:40.357Z,27.57
2019-03-31T01:45:43.642Z,35.47
2019-03-31T01:50:46.700Z,28.83
2019-03-31T01:55:50.281Z,35.73
2019-03-31T02:00:56.812Z,30.37
2019-03-31T02:06:00.913Z,32.20
2019-03-31T02:11:04.319Z,42.33
2019-03-31T02:16:08.169Z,32.30
2019-03-31T02:21:11.300Z,35.33
2019-03-31T02:26:15.151Z,34.60
2019-03-31T02:31:19.282Z,35.40
2019-03-31T02:36:23.043Z,34.93
2019-03-31T02:41:26.755Z,34.40
2019-03-31T02:46:30.172Z,43.60
2019-03-31T02:51:33.520Z,39.20
2019-03-31T02:56:39.291Z,39.30
2019-03-31T03:01:45.280Z,37.17
2019-03-31T03:06:52.848Z,37.10
2019-03-31T03:11:58.061Z,37.63
2019-03-31T03:17:01.710Z,39.10
2019-03-31T03:22:05.002Z,38.20
2019-03-31T03:27:08.522Z,42.90
2019-03-31T03:32:11.930Z,44.53
2019-03-31T03:37:15.731Z,42.17
2019-03-31T03:42:18.730Z,43.57
2019-03-31T03:47:22.888Z,42.97
2019-03-31T03:52:25.877Z,38.53
2019-03-31T03:57:28.852Z,45.17
2019-03-31T04:02:31.946Z,43.67
2019-03-31T04:07:35.571Z,46.93
2019-03-31T04:12:39.265Z,46.23
2019-03-31T04:17:42.654Z,44.37
2019-03-31T04:22:46.120Z,46.93
2019-03-31T04:27:49.790Z,45.60
2019-03-31T04:32:53.395Z,52.07
2019-03-31T04:37:57.022Z,51.03
2019-03-31T04:43:00.312Z,56.70
2019-03-31T04:48:03.516Z,52.47
2019-03-31T04:53:07.702Z,54.17
2019-03-31T04:58:13.555Z,51.97
2019-03-31T05:03:16.884Z,53.57
2019-03-31T05:08:20.836Z,54.47
2019-03-31T05:13:24.526Z,52.77
2019-03-31T05:18:27.808Z,55.80
2019-03-31T05:23:31.426Z,52.27
2019-03-31T05:28:34.833Z,56.50
2019-03-31T05:33:38.335Z,57.43
2019-03-31T05:38:41.672Z,59.60
2019-03-31T05:43:45.096Z,55.53
2019-03-31T05:48:48.397Z,55.77
2019-03-31T05:53:51.379Z,57.43
2019-03-31T05:58:54.690Z,52.60
2019-03-31T06:03:57.968Z,52.33
2019-03-31T06:09:00.940Z,52.03
2019-03-31T06:14:04.262Z,57.27
2019-03-31T06:19:07.924Z,48.90
2019-03-31T06:24:11.869Z,44.43
2019-03-31T06:29:14.891Z,45.47
2019-03-31T06:34:17.983Z,45.27
2019-03-31T06:39:20.965Z,41.47
2019-03-31T06:44:24.317Z,39.00
2019-03-31T06:49:27.305Z,32.20
2019-03-31T06:54:31.469Z,29.07
2019-03-31T06:59:34.490Z,27.37
2019-03-31T07:04:38.273Z,26.10
2019-03-31T07:09:41.546Z,26.77
2019-03-31T07:14:44.537Z,27.93
2019-03-31T07:19:47.752Z,27.87
2019-03-31T07:24:50.978Z,21.67
2019-03-31T07:29:55.002Z,28.70
2019-03-31T07:34:58.643Z,26.17
2019-03-31T07:40:02.342Z,23.33
2019-03-31T07:45:08.525Z,27.90
2019-03-31T07:50:12.871Z,30.57
2019-03-31T07:55:17.687Z,28.97
2019-03-31T08:00:21.802Z,29.57
2019-03-31T08:05:32.987Z,21.87
2019-03-31T08:10:32.068Z,22.77
2019-03-31T08:15:36.140Z,16.57
2019-03-31T08:20:39.482Z,17.97
2019-03-31T08:25:42.479Z,18.23
2019-03-31T08:30:45.514Z,19.63
2019-03-31T08:35:49.774Z,26.47
2019-03-31T08:40:54.367Z,24.00
2019-03-31T08:45:57.318Z,19.73
2019-03-31T08:51:01.196Z,22.97
2019-03-31T08:56:04.170Z,21.70
2019-03-31T09:01:11.196Z,21.97
2019-03-31T09:06:14.340Z,24.10
2019-03-31T09:11:17.572Z,19.77
2019-03-31T09:16:20.585Z,19.07
2019-03-31T09:21:23.685Z,24.53
2019-03-31T09:26:27.862Z,22.60
2019-03-31T09:31:30.961Z,24.07
2019-03-31T09:36:34.661Z,22.63
2019-03-31T09:41:37.652Z,22.40
2019-03-31T09:46:41.013Z,18.17
2019-03-31T09:51:44.620Z,16.30
2019-03-31T09:56:47.607Z,15.77
2019-03-31T10:01:50.934Z,14.47
2019-03-31T10:06:55.390Z,19.23
2019-03-31T10:11:58.788Z,22.20
2019-03-31T10:17:01.994Z,14.90
2019-03-31T10:22:05.010Z,17.23
2019-03-31T10:27:08.493Z,13.73
2019-03-31T10:32:12.110Z,11.77
2019-03-31T10:37:15.167Z,12.03
2019-03-31T10:42:18.753Z,11.47
2019-03-31T10:47:22.784Z,10.07
2019-03-31T10:52:26.310Z,9.67
2019-03-31T10:57:30.582Z,8.47
2019-03-31T11:02:34.147Z,9.23
2019-03-31T11:07:37.557Z,7.47
2019-03-31T11:12:40.912Z,9.13
2019-03-31T11:17:44.198Z,8.13
2019-03-31T11:22:52.979Z,6.67
2019-03-31T11:27:57.910Z,10.40
2019-03-31T11:33:01.180Z,9.83
2019-03-31T11:38:04.488Z,9.67
2019-03-31T11:43:07.641Z,8.63
2019-03-31T11:48:11.461Z,11.83
2019-03-31T11:53:14.483Z,8.40
2019-03-31T11:58:18.136Z,5.67
2019-03-31T12:03:21.827Z,7.27
2019-03-31T12:08:24.851Z,7.20
2019-03-31T12:13:28.586Z,4.73
2019-03-31T12:18:31.563Z,4.13
2019-03-31T12:23:35.521Z,4.57
2019-03-31T12:28:39.472Z,5.37
2019-03-31T12:33:43.741Z,4.43
2019-03-31T12:38:46.885Z,7.03
2019-03-31T12:43:51.022Z,6.33
2019-03-31T12:48:54.613Z,7.87
2019-03-31T12:53:58.680Z,7.70
2019-03-31T12:59:02.573Z,6.30
2019-03-31T13:04:05.761Z,7.30
2019-03-31T13:09:09.062Z,5.33
2019-03-31T13:14:12.519Z,4.83
2019-03-31T13:19:16.379Z,5.73
2019-03-31T13:24:19.667Z,3.83
2019-03-31T13:29:23.397Z,5.70
2019-03-31T13:34:26.409Z,8.77
2019-03-31T13:39:29.520Z,4.53
2019-03-31T13:44:33.325Z,7.33
2019-03-31T13:49:36.312Z,4.67
2019-03-31T13:54:40.439Z,5.83
2019-03-31T13:59:44.062Z,7.10
2019-03-31T14:04:51.699Z,5.23
2019-03-31T14:09:52.645Z,5.97
2019-03-31T14:14:56.886Z,6.00
2019-03-31T14:20:00.864Z,5.23
2019-03-31T14:25:04.644Z,4.23
2019-03-31T14:30:10.825Z,7.70
2019-03-31T14:35:14.045Z,4.87
2019-03-31T14:40:17.118Z,4.27
2019-03-31T14:45:31.959Z,3.40
2019-03-31T14:50:39.200Z,6.33
2019-03-31T14:55:42.578Z,3.80
2019-03-31T15:00:45.641Z,6.63
2019-03-31T15:05:48.964Z,4.27
2019-03-31T15:10:52.342Z,3.83
2019-03-31T15:15:56.192Z,5.33
2019-03-31T15:20:59.203Z,4.23
2019-03-31T15:26:03.070Z,3.67
2019-03-31T15:31:06.402Z,3.50
2019-03-31T15:36:10.702Z,5.37
2019-03-31T15:41:21.028Z,3.33
2019-03-31T15:46:19.283Z,5.27
2019-03-31T15:51:22.307Z,5.63
2019-03-31T15:56:25.437Z,3.37
2019-03-31T16:01:28.425Z,3.83
2019-03-31T16:06:31.448Z,7.23
2019-03-31T16:11:33.646Z,4.47
2019-03-31T16:16:35.884Z,7.57
2019-03-31T16:21:38.048Z,3.60
2019-03-31T16:26:41.068Z,3.33
2019-03-31T16:31:43.500Z,4.73
2019-03-31T16:36:45.695Z,4.80
2019-03-31T16:41:48.264Z,3.40
2019-03-31T16:46:50.507Z,5.47
2019-03-31T16:51:52.976Z,4.30
2019-03-31T16:56:55.151Z,5.60
2019-03-31T17:01:58.315Z,4.60
2019-03-31T17:07:00.616Z,5.33
2019-03-31T17:12:03.932Z,5.50
2019-03-31T17:17:07.372Z,8.37
2019-03-31T17:22:09.821Z,6.17
2019-03-31T17:27:14.082Z,7.07
2019-03-31T17:32:16.829Z,8.40
2019-03-31T17:37:19.062Z,8.63
2019-03-31T17:42:21.348Z,6.37
2019-03-31T17:47:23.574Z,6.20
2019-03-31T17:52:26.759Z,6.40
2019-03-31T17:57:29.029Z,6.03
2019-03-31T18:02:31.778Z,6.70
2019-03-31T18:07:34.887Z,4.90
2019-03-31T18:12:37.875Z,5.07
2019-03-31T18:17:40.101Z,8.90
2019-03-31T18:22:42.761Z,7.30
2019-03-31T18:27:45.457Z,8.17
2019-03-31T18:32:48.382Z,7.00
2019-03-31T18:37:50.962Z,8.93
2019-03-31T18:42:53.867Z,6.37
2019-03-31T18:48:00.994Z,6.87
2019-03-31T18:53:03.194Z,5.00
2019-03-31T18:58:17.358Z,9.10
2019-03-31T19:03:34.683Z,5.70
2019-03-31T19:08:45.913Z,12.43
2019-03-31T19:14:04.623Z,6.50
2019-03-31T19:19:21.491Z,7.07
2019-03-31T19:24:46.743Z,10.07
2019-03-31T19:30:15.562Z,8.67
2019-03-31T19:35:33.361Z,9.17
2019-03-31T19:41:02.978Z,11.50
2019-03-31T19:46:05.940Z,13.23
2019-03-31T19:51:27.072Z,8.77
2019-03-31T19:56:50.169Z,7.90
2019-03-31T20:02:10.121Z,8.63
2019-03-31T20:07:35.111Z,10.37
2019-03-31T20:12:56.984Z,5.90
2019-03-31T20:18:25.084Z,5.97
2019-03-31T20:23:43.038Z,8.40
2019-03-31T20:28:56.283Z,6.40
2019-03-31T20:34:18.494Z,5.53
2019-03-31T20:39:56.861Z,6.47
2019-03-31T20:44:59.423Z,3.93
2019-03-31T20:50:07.050Z,7.53
2019-03-31T20:55:16.456Z,13.67
2019-03-31T21:00:15.088Z,5.50
2019-03-31T21:05:18.570Z,9.37
2019-03-31T21:10:20.758Z,7.67
2019-03-31T21:15:23.117Z,8.43
2019-03-31T21:20:25.397Z,5.93
2019-03-31T21:25:27.614Z,4.83
2019-03-31T21:30:30.449Z,5.43
2019-03-31T21:35:33.553Z,6.23
2019-03-31T21:40:35.773Z,9.07
2019-03-31T21:45:38.542Z,7.63
2019-03-31T21:50:41.011Z,4.37
2019-03-31T21:55:43.641Z,4.83
2019-03-31T22:00:53.687Z,6.10
2019-03-31T22:05:56.513Z,4.90
2019-03-31T22:10:58.771Z,7.47
2019-03-31T22:16:00.996Z,7.50
2019-03-31T22:21:03.769Z,5.50
2019-03-31T22:26:06.078Z,6.30
2019-03-31T22:31:08.512Z,5.97
2019-03-31T22:36:20.136Z,5.50
2019-03-31T22:41:23.872Z,4.87
2019-03-31T22:46:26.419Z,9.57
2019-03-31T22:51:28.601Z,7.03
2019-03-31T22:56:30.786Z,5.10
2019-03-31T23:01:33.816Z,6.77
2019-03-31T23:06:37.747Z,4.77
2019-03-31T23:11:41.790Z,4.57
2019-03-31T23:16:44.698Z,12.37
2019-03-31T23:21:46.839Z,6.33
2019-03-31T23:26:50.171Z,9.97
2019-03-31T23:31:52.967Z,4.13
